Time;durP1;ratioP1;P1;durP2;ratioP2;P2;SDS_P1;SDS_P2;PMS_P1;PMS_P2;Temp;Humidity;BMP_temperature;BMP_pressure;BME280_temperature;BME280_humidity;BME280_pressure;Samples;Min_cycle;Max_cycle;Signal;HPM_P1;HPM_P2
2023/12/20 00:01:22;;;;;;;10.60;2.42;;;6.60;99.90;;;;;;5032019;28;20172;-82
2023/12/20 00:03:48;;;;;;;13.27;2.50;;;6.50;99.90;;;;;;5020463;28;20487;-81
2023/12/20 00:06:14;;;;;;;15.43;2.90;;;6.40;99.90;;;;;;5021845;28;20051;-82
2023/12/20 00:08:39;;;;;;;15.43;2.90;;;6.30;99.90;;;;;;5029272;28;20459;-81
2023/12/20 00:11:05;;;;;;;16.42;2.90;;;6.40;99.90;;;;;;5036509;28;20041;-82
2023/12/20 00:13:31;;;;;;;13.52;3.00;;;6.40;99.90;;;;;;5029674;28;20361;-81
2023/12/20 00:15:57;;;;;;;14.75;2.63;;;6.20;99.90;;;;;;5017210;28;20407;-82
2023/12/20 00:18:23;;;;;;;15.35;3.00;;;6.40;99.90;;;;;;5018794;28;20472;-81
2023/12/20 00:20:49;;;;;;;18.38;2.63;;;6.30;99.90;;;;;;5017969;28;20407;-82
2023/12/20 00:23:15;;;;;;;14.13;3.08;;;6.30;99.90;;;;;;5024163;28;20357;-82
2023/12/20 00:25:40;;;;;;;14.82;3.25;;;6.30;99.90;;;;;;5016872;28;20330;-81
2023/12/20 00:28:06;;;;;;;13.88;2.90;;;6.10;99.90;;;;;;5030960;28;20090;-82
2023/12/20 00:30:32;;;;;;;16.30;3.22;;;6.20;99.90;;;;;;5020654;28;20115;-82
2023/12/20 00:32:58;;;;;;;11.38;2.55;;;6.30;99.90;;;;;;5017304;28;20602;-81
2023/12/20 00:35:24;;;;;;;14.95;2.45;;;6.40;99.90;;;;;;5021325;28;20037;-81
2023/12/20 00:37:49;;;;;;;13.63;3.33;;;6.30;99.90;;;;;;5034538;28;20052;-81
2023/12/20 00:40:15;;;;;;;14.07;2.85;;;6.30;99.90;;;;;;5012881;28;20037;-82
2023/12/20 00:42:41;;;;;;;15.45;2.80;;;6.40;99.90;;;;;;5027201;28;20033;-82
2023/12/20 00:45:07;;;;;;;12.25;3.63;;;6.30;99.90;;;;;;5029572;28;20044;-81
2023/12/20 00:47:33;;;;;;;20.63;3.85;;;6.30;99.90;;;;;;5020711;28;20032;-82
2023/12/20 00:49:58;;;;;;;20.85;3.38;;;6.40;99.90;;;;;;5021315;28;20068;-82
2023/12/20 00:52:25;;;;;;;16.30;2.75;;;6.30;99.90;;;;;;5018843;28;20058;-82
2023/12/20 00:54:51;;;;;;;13.55;2.97;;;6.20;99.90;;;;;;5034468;28;20484;-81
2023/12/20 00:57:16;;;;;;;13.52;3.33;;;6.40;99.90;;;;;;5018659;28;20098;-82
2023/12/20 00:59:42;;;;;;;16.40;2.80;;;6.30;99.90;;;;;;5027425;28;20391;-82
2023/12/20 01:02:09;;;;;;;19.95;3.08;;;6.30;99.90;;;;;;5033418;28;20037;-82
2023/12/20 01:04:34;;;;;;;17.00;4.40;;;6.30;99.90;;;;;;5017798;28;20044;-81
2023/12/20 01:07:00;;;;;;;12.98;2.67;;;6.50;99.90;;;;;;5018470;28;20037;-82
2023/12/20 01:09:28;;;;;;;20.73;3.50;;;6.20;99.90;;;;;;5018943;28;20049;-82
2023/12/20 01:11:54;;;;;;;11.98;3.17;;;6.30;99.90;;;;;;5029312;28;20484;-81
2023/12/20 01:14:20;;;;;;;14.35;2.97;;;6.40;99.90;;;;;;5016036;28;20047;-82
2023/12/20 01:16:46;;;;;;;14.82;3.58;;;6.30;99.90;;;;;;5019892;28;20563;-82
2023/12/20 01:19:13;;;;;;;11.82;3.03;;;6.40;99.90;;;;;;5016709;28;20396;-82
2023/12/20 01:21:39;;;;;;;17.35;3.70;;;6.60;99.90;;;;;;5039898;28;20378;-82
2023/12/20 01:24:04;;;;;;;15.85;3.15;;;6.50;99.90;;;;;;5017565;28;20520;-82
2023/12/20 01:26:30;;;;;;;13.75;3.10;;;6.60;99.90;;;;;;5014983;28;20131;-82
2023/12/20 01:28:56;;;;;;;11.50;2.95;;;6.40;99.90;;;;;;5016976;28;20071;-82
2023/12/20 01:31:21;;;;;;;12.45;3.15;;;6.50;99.90;;;;;;5011147;28;20059;-81
2023/12/20 01:33:49;;;;;;;12.90;3.03;;;6.40;99.90;;;;;;5020062;28;20072;-82
2023/12/20 01:36:14;;;;;;;16.50;3.00;;;6.40;99.90;;;;;;5014375;28;20052;-82
2023/12/20 01:38:40;;;;;;;17.05;3.83;;;6.40;99.90;;;;;;5032167;28;20033;-82
2023/12/20 01:41:06;;;;;;;13.98;3.72;;;6.40;99.90;;;;;;5014282;28;20041;-82
2023/12/20 01:43:31;;;;;;;14.35;3.38;;;6.40;99.90;;;;;;5013410;28;20130;-82
2023/12/20 01:45:58;;;;;;;18.25;3.75;;;6.50;99.90;;;;;;5015956;28;20029;-82
2023/12/20 01:48:24;;;;;;;13.10;2.97;;;6.50;99.90;;;;;;5014691;28;20087;-81
2023/12/20 01:50:51;;;;;;;18.15;4.15;;;6.50;99.90;;;;;;5020634;28;20136;-81
2023/12/20 01:53:19;;;;;;;12.80;3.45;;;6.50;99.90;;;;;;5037605;28;20104;-82
2023/12/20 01:55:45;;;;;;;13.85;3.58;;;6.40;99.90;;;;;;5013930;28;20096;-82
2023/12/20 01:58:12;;;;;;;13.20;2.65;;;6.40;99.90;;;;;;5016546;28;20412;-81
2023/12/20 02:00:38;;;;;;;13.48;2.55;;;6.50;99.90;;;;;;5019576;28;20286;-81
2023/12/20 02:03:04;;;;;;;11.10;2.72;;;6.60;99.90;;;;;;5036171;28;20293;-82
2023/12/20 02:05:31;;;;;;;15.32;3.22;;;6.40;99.90;;;;;;5013009;28;20042;-81
2023/12/20 02:07:58;;;;;;;16.73;3.53;;;6.40;99.90;;;;;;5011360;28;20396;-81
2023/12/20 02:10:24;;;;;;;16.40;3.03;;;6.40;99.90;;;;;;5034818;28;20136;-82
2023/12/20 02:12:50;;;;;;;22.02;4.07;;;6.60;99.90;;;;;;5027414;28;20052;-82
2023/12/20 02:15:16;;;;;;;16.30;4.07;;;6.60;99.90;;;;;;5014614;28;20411;-82
2023/12/20 02:17:43;;;;;;;12.00;3.60;;;6.60;99.90;;;;;;5018616;28;20506;-82
2023/12/20 02:20:08;;;;;;;15.95;3.90;;;6.50;99.90;;;;;;5017160;28;20044;-82
2023/12/20 02:22:35;;;;;;;19.77;4.07;;;6.60;99.90;;;;;;5015052;28;20534;-81
2023/12/20 02:25:01;;;;;;;18.20;4.07;;;6.50;99.90;;;;;;5030972;28;20044;-82
2023/12/20 02:27:28;;;;;;;20.10;3.53;;;6.50;99.90;;;;;;5026620;28;20037;-82
2023/12/20 02:29:54;;;;;;;19.48;4.28;;;6.40;99.90;;;;;;5016605;28;20041;-82
2023/12/20 02:32:22;;;;;;;14.50;3.85;;;6.40;99.90;;;;;;5021638;28;20036;-82
2023/12/20 02:34:48;;;;;;;20.38;3.72;;;6.50;99.90;;;;;;5018579;28;20442;-82
2023/12/20 02:37:14;;;;;;;19.60;4.13;;;6.40;99.90;;;;;;5017173;28;20052;-82
2023/12/20 02:39:40;;;;;;;16.17;3.17;;;6.40;99.90;;;;;;5020880;28;20028;-82
2023/12/20 02:42:06;;;;;;;24.92;4.13;;;6.30;99.90;;;;;;5018944;28;20099;-82
2023/12/20 02:44:31;;;;;;;21.40;4.00;;;6.30;99.90;;;;;;5024252;28;20040;-81
2023/12/20 02:46:57;;;;;;;20.23;4.03;;;6.30;99.90;;;;;;5030696;28;20041;-82
2023/12/20 02:49:23;;;;;;;18.50;4.30;;;6.50;99.90;;;;;;5023472;28;20033;-82
2023/12/20 02:51:48;;;;;;;17.95;3.58;;;6.40;99.90;;;;;;5018391;28;20036;-82
2023/12/20 02:54:14;;;;;;;23.35;4.30;;;6.50;99.90;;;;;;5037346;28;20037;-82
2023/12/20 02:56:40;;;;;;;25.10;4.22;;;6.50;99.90;;;;;;5019884;28;20284;-81
2023/12/20 02:59:09;;;;;;;22.17;4.55;;;6.50;99.90;;;;;;5015147;28;20032;-82
2023/12/20 03:01:35;;;;;;;27.55;4.57;;;6.50;99.90;;;;;;5032466;28;20041;-82
2023/12/20 03:04:01;;;;;;;18.83;4.30;;;6.50;99.90;;;;;;5051575;28;20037;-82
2023/12/20 03:06:27;;;;;;;19.67;4.53;;;6.50;99.90;;;;;;5021136;28;20405;-81
2023/12/20 03:08:52;;;;;;;23.70;4.75;;;6.50;99.90;;;;;;5021040;28;20072;-82
2023/12/20 03:11:18;;;;;;;19.42;4.32;;;6.50;99.90;;;;;;5016796;28;20162;-82
2023/12/20 03:13:44;;;;;;;19.15;4.68;;;6.70;99.90;;;;;;5031875;28;20082;-82
2023/12/20 03:16:11;;;;;;;23.38;5.10;;;6.60;99.90;;;;;;5018438;28;20172;-82
2023/12/20 03:18:37;;;;;;;25.33;4.18;;;6.80;99.90;;;;;;5013391;28;20064;-82
2023/12/20 03:21:04;;;;;;;28.15;5.65;;;6.70;99.90;;;;;;5035237;28;20041;-82
2023/12/20 03:23:30;;;;;;;23.60;4.38;;;6.80;99.90;;;;;;5024270;28;20086;-82
2023/12/20 03:25:56;;;;;;;21.17;5.88;;;6.90;99.90;;;;;;5013762;28;20531;-81
2023/12/20 03:28:23;;;;;;;26.73;4.70;;;6.80;99.90;;;;;;5014921;28;20395;-82
2023/12/20 03:30:49;;;;;;;28.48;5.15;;;6.90;99.90;;;;;;5031011;28;20507;-82
2023/12/20 03:33:15;;;;;;;31.52;5.65;;;7.00;99.90;;;;;;5018819;28;20044;-82
2023/12/20 03:35:41;;;;;;;27.77;4.50;;;6.90;99.90;;;;;;5023646;28;20095;-82
2023/12/20 03:38:07;;;;;;;24.08;4.60;;;7.00;99.90;;;;;;5031124;28;20094;-82
2023/12/20 03:40:32;;;;;;;25.73;4.68;;;7.10;99.90;;;;;;5031409;28;20435;-82
2023/12/20 03:42:58;;;;;;;20.65;4.50;;;7.00;99.90;;;;;;5022218;28;20041;-82
2023/12/20 03:45:24;;;;;;;25.90;5.50;;;6.90;99.90;;;;;;5014279;28;20043;-82
2023/12/20 03:47:54;;;;;;;23.67;4.20;;;7.00;99.90;;;;;;5031612;28;20470;-82
2023/12/20 03:50:22;;;;;;;23.38;4.85;;;6.90;99.90;;;;;;5023542;28;20419;-82
2023/12/20 03:52:47;;;;;;;26.88;5.10;;;7.00;99.90;;;;;;5019569;28;20048;-82
2023/12/20 03:55:13;;;;;;;25.73;5.60;;;6.90;99.90;;;;;;5021353;28;20074;-82
2023/12/20 03:57:39;;;;;;;29.55;4.65;;;6.90;99.90;;;;;;5016511;28;20045;-82
2023/12/20 04:00:10;;;;;;;28.65;5.03;;;6.90;99.90;;;;;;5013150;28;20029;-82
2023/12/20 04:02:38;;;;;;;29.17;4.72;;;6.90;99.90;;;;;;5012907;28;20052;-81
2023/12/20 04:05:05;;;;;;;26.98;5.30;;;7.10;99.90;;;;;;5034188;28;20056;-81
2023/12/20 04:07:31;;;;;;;23.67;4.47;;;7.00;99.90;;;;;;5035754;28;20036;-82
2023/12/20 04:09:56;;;;;;;25.27;5.45;;;7.00;99.90;;;;;;5030140;28;20063;-82
2023/12/20 04:12:22;;;;;;;28.02;5.00;;;7.00;99.90;;;;;;5020410;28;20347;-82
2023/12/20 04:14:48;;;;;;;19.42;3.88;;;7.10;99.90;;;;;;5032755;28;20103;-82
2023/12/20 04:17:15;;;;;;;21.55;3.90;;;7.00;99.90;;;;;;5033074;28;20371;-82
2023/12/20 04:19:42;;;;;;;20.67;3.97;;;7.10;99.90;;;;;;5034159;28;20079;-81
2023/12/20 04:22:07;;;;;;;21.65;4.43;;;7.10;99.90;;;;;;5015655;28;20320;-82
2023/12/20 04:24:33;;;;;;;22.85;3.67;;;7.10;99.90;;;;;;5019433;28;20132;-82
2023/12/20 04:26:59;;;;;;;21.38;4.40;;;7.20;99.90;;;;;;5019185;28;20033;-81
2023/12/20 04:29:24;;;;;;;25.73;4.57;;;7.10;99.90;;;;;;5020428;28;20762;-82
2023/12/20 04:31:51;;;;;;;24.55;4.53;;;7.20;99.90;;;;;;5015137;28;20077;-81
2023/12/20 04:34:17;;;;;;;15.50;3.70;;;7.20;99.90;;;;;;5038284;28;20126;-81
2023/12/20 04:36:43;;;;;;;25.38;4.60;;;7.20;99.90;;;;;;5035225;28;20103;-81
2023/12/20 04:39:10;;;;;;;20.10;3.80;;;7.20;99.90;;;;;;5017275;28;20656;-82
2023/12/20 04:41:36;;;;;;;14.13;2.78;;;7.30;99.90;;;;;;5031959;28;20424;-81
2023/12/20 04:44:02;;;;;;;22.88;4.22;;;7.30;99.90;;;;;;5015055;28;20033;-82
2023/12/20 04:46:27;;;;;;;22.38;3.80;;;7.20;99.90;;;;;;5020580;28;20127;-82
2023/12/20 04:48:53;;;;;;;26.20;3.90;;;7.20;99.90;;;;;;5030858;28;20584;-81
2023/12/20 04:51:19;;;;;;;18.60;3.47;;;7.30;99.90;;;;;;5032136;28;20059;-81
2023/12/20 04:53:45;;;;;;;22.88;4.00;;;7.20;99.90;;;;;;5022442;28;20068;-82
2023/12/20 04:56:10;;;;;;;21.48;3.92;;;7.30;99.90;;;;;;5016013;28;20049;-82
2023/12/20 04:58:36;;;;;;;18.25;3.95;;;7.20;99.90;;;;;;5018286;28;20037;-82
2023/12/20 05:01:03;;;;;;;22.65;3.75;;;7.30;99.90;;;;;;5034539;28;20057;-81
2023/12/20 05:03:28;;;;;;;24.58;4.78;;;7.20;99.90;;;;;;5022827;28;20576;-82
2023/12/20 05:05:54;;;;;;;19.83;3.75;;;7.30;99.90;;;;;;5033599;28;20125;-82
2023/12/20 05:08:20;;;;;;;16.98;3.92;;;7.40;99.90;;;;;;5034969;28;20037;-81
2023/12/20 05:10:46;;;;;;;21.73;4.40;;;7.30;99.90;;;;;;5032475;28;20040;-82
2023/12/20 05:13:11;;;;;;;18.42;3.83;;;7.40;99.90;;;;;;5016661;28;20123;-81
2023/12/20 05:15:37;;;;;;;24.23;4.40;;;7.40;99.90;;;;;;5013929;28;20653;-81
2023/12/20 05:18:03;;;;;;;22.30;3.85;;;7.30;99.90;;;;;;5027429;28;20119;-81
2023/12/20 05:20:29;;;;;;;18.17;4.13;;;7.30;99.90;;;;;;5021720;28;20089;-82
2023/12/20 05:22:54;;;;;;;18.08;3.90;;;7.40;99.90;;;;;;5033089;28;20037;-82
2023/12/20 05:25:20;;;;;;;18.30;4.05;;;7.50;99.90;;;;;;5035462;28;20037;-81
2023/12/20 05:27:46;;;;;;;21.77;3.80;;;7.50;99.90;;;;;;5010885;28;20033;-82
2023/12/20 05:30:12;;;;;;;22.20;4.05;;;7.50;99.90;;;;;;5023294;28;20403;-81
2023/12/20 05:32:37;;;;;;;21.17;3.75;;;7.40;99.90;;;;;;5038220;28;20553;-82
2023/12/20 05:35:03;;;;;;;18.33;3.58;;;7.50;99.90;;;;;;5014464;28;20491;-82
2023/12/20 05:37:29;;;;;;;19.25;3.95;;;7.50;99.90;;;;;;5017946;28;20120;-82
2023/12/20 05:39:55;;;;;;;21.33;3.55;;;7.50;99.90;;;;;;5015129;28;20108;-81
2023/12/20 05:42:21;;;;;;;23.17;4.15;;;7.60;99.90;;;;;;5016822;28;20037;-81
2023/12/20 05:44:46;;;;;;;22.92;4.00;;;7.60;99.90;;;;;;5016729;28;20076;-81
2023/12/20 05:47:12;;;;;;;23.95;4.63;;;7.60;99.90;;;;;;5030485;28;20254;-82
2023/12/20 05:49:38;;;;;;;23.00;4.57;;;7.60;99.90;;;;;;5012504;28;20049;-81
2023/12/20 05:52:03;;;;;;;30.10;4.60;;;7.50;99.90;;;;;;5029044;28;20172;-81
2023/12/20 05:54:29;;;;;;;19.60;3.85;;;7.50;99.90;;;;;;5016054;28;20033;-81
2023/12/20 05:56:55;;;;;;;20.15;3.80;;;7.60;99.90;;;;;;5012982;28;20048;-82
2023/12/20 05:59:21;;;;;;;20.50;3.58;;;7.60;99.90;;;;;;5012707;28;20116;-82
2023/12/20 06:01:46;;;;;;;20.65;4.18;;;7.70;99.90;;;;;;5010231;28;20088;-82
2023/12/20 06:04:12;;;;;;;20.08;4.50;;;7.70;99.90;;;;;;5019442;28;20037;-81
2023/12/20 06:06:44;;;;;;;23.88;4.75;;;7.70;99.90;;;;;;5034902;28;20084;-81
2023/12/20 06:09:10;;;;;;;24.70;4.60;;;7.60;99.90;;;;;;5020888;28;20283;-82
2023/12/20 06:11:36;;;;;;;24.02;5.35;;;7.60;99.90;;;;;;5022657;28;20584;-82
2023/12/20 06:14:02;;;;;;;23.58;3.80;;;7.60;99.90;;;;;;5022178;28;20040;-81
2023/12/20 06:16:27;;;;;;;15.95;3.72;;;7.70;99.90;;;;;;5020898;28;20037;-81
2023/12/20 06:18:53;;;;;;;21.75;4.30;;;7.70;99.90;;;;;;5035439;28;20339;-81
2023/12/20 06:21:19;;;;;;;24.63;3.95;;;7.70;99.90;;;;;;5023542;28;20187;-81
2023/12/20 06:23:44;;;;;;;21.85;4.00;;;7.70;99.90;;;;;;5024947;28;20056;-82
2023/12/20 06:26:10;;;;;;;21.35;4.40;;;7.70;99.90;;;;;;5024195;28;20052;-82
2023/12/20 06:28:36;;;;;;;22.98;4.90;;;7.70;99.90;;;;;;5015138;28;20543;-81
2023/12/20 06:31:02;;;;;;;24.75;4.15;;;7.70;99.90;;;;;;5036414;28;20075;-82
2023/12/20 06:33:30;;;;;;;15.80;3.60;;;7.80;99.90;;;;;;5038503;28;20043;-81
2023/12/20 06:35:56;;;;;;;25.35;4.43;;;7.80;99.90;;;;;;5024280;28;20109;-81
2023/12/20 06:38:36;;;;;;;21.90;5.32;;;7.90;99.90;;;;;;5099620;27;1327728;-82
2023/12/20 06:41:02;;;;;;;25.50;4.10;;;7.90;99.90;;;;;;5102518;27;20812;-82
2023/12/20 06:43:28;;;;;;;20.00;4.10;;;7.80;99.90;;;;;;5090864;27;20058;-82
2023/12/20 06:45:54;;;;;;;18.17;3.72;;;7.90;99.90;;;;;;5097413;27;20435;-81
2023/12/20 06:48:20;;;;;;;18.63;3.78;;;7.90;99.90;;;;;;5099153;27;20557;-81
2023/12/20 06:50:46;;;;;;;23.60;3.83;;;7.80;99.90;;;;;;5098815;27;20493;-82
2023/12/20 06:53:14;;;;;;;22.45;3.90;;;7.90;99.90;;;;;;5101351;27;20096;-82
2023/12/20 06:55:40;;;;;;;20.88;4.45;;;7.90;99.90;;;;;;5113605;27;20035;-81
2023/12/20 06:58:06;;;;;;;23.08;4.88;;;7.80;99.90;;;;;;5095197;27;20050;-81
2023/12/20 07:00:32;;;;;;;20.85;4.18;;;7.80;99.90;;;;;;5092646;27;20042;-82
2023/12/20 07:02:58;;;;;;;20.98;4.07;;;7.80;99.90;;;;;;5112237;27;20186;-82
2023/12/20 07:05:24;;;;;;;15.18;3.80;;;7.90;99.90;;;;;;5098935;27;20061;-82
2023/12/20 07:07:50;;;;;;;21.00;4.20;;;7.90;99.90;;;;;;5097676;27;20126;-82
2023/12/20 07:10:16;;;;;;;23.25;4.60;;;7.80;99.90;;;;;;5095345;27;20175;-82
2023/12/20 07:12:41;;;;;;;24.27;4.20;;;7.90;99.90;;;;;;5111501;27;20246;-82
2023/12/20 07:15:08;;;;;;;20.48;3.63;;;7.90;99.90;;;;;;5109925;27;20038;-81
2023/12/20 07:17:34;;;;;;;18.83;5.13;;;7.90;99.90;;;;;;5113357;27;20035;-81
2023/12/20 07:20:03;;;;;;;23.73;3.95;;;7.90;99.90;;;;;;5114072;27;20391;-81
2023/12/20 07:22:31;;;;;;;21.88;5.07;;;7.90;99.90;;;;;;5098099;27;20042;-82
2023/12/20 07:24:58;;;;;;;18.15;4.57;;;8.00;99.90;;;;;;5101119;27;20030;-82
2023/12/20 07:27:24;;;;;;;26.27;4.93;;;8.00;99.90;;;;;;5115849;27;20079;-82
2023/12/20 07:29:50;;;;;;;20.48;4.63;;;7.90;99.90;;;;;;5096515;27;20493;-82
2023/12/20 07:32:15;;;;;;;20.38;4.88;;;8.00;99.90;;;;;;5114624;27;20336;-82
2023/12/20 07:34:41;;;;;;;25.60;4.70;;;8.00;99.90;;;;;;5100743;27;20073;-81
2023/12/20 07:37:10;;;;;;;18.35;4.03;;;8.10;99.90;;;;;;5095332;27;20039;-82
2023/12/20 07:39:36;;;;;;;18.05;4.57;;;8.00;99.90;;;;;;5093492;27;20494;-82
2023/12/20 07:42:01;;;;;;;18.95;3.97;;;8.10;99.90;;;;;;5110174;27;20050;-82
2023/12/20 07:44:27;;;;;;;19.25;4.57;;;8.10;99.90;;;;;;5100004;27;20308;-81
2023/12/20 07:46:53;;;;;;;21.63;4.75;;;8.10;99.90;;;;;;5100423;27;20251;-81
2023/12/20 07:49:19;;;;;;;26.17;4.90;;;8.10;99.90;;;;;;5086045;27;20520;-82
2023/12/20 07:51:45;;;;;;;24.48;4.18;;;8.10;99.90;;;;;;5083848;27;20281;-81
2023/12/20 07:54:11;;;;;;;28.92;4.97;;;8.10;99.90;;;;;;5099454;27;20050;-82
2023/12/20 07:56:36;;;;;;;27.90;5.60;;;8.10;99.90;;;;;;5085273;27;20315;-82
2023/12/20 07:59:02;;;;;;;22.08;5.75;;;8.10;99.90;;;;;;5082392;27;20095;-82
2023/12/20 08:01:28;;;;;;;21.75;4.75;;;8.10;99.90;;;;;;5083313;27;20149;-82
2023/12/20 08:03:57;;;;;;;19.20;4.85;;;8.10;99.90;;;;;;5102458;27;20031;-82
2023/12/20 08:06:22;;;;;;;22.88;5.07;;;8.10;99.90;;;;;;5103201;27;20030;-81
2023/12/20 08:08:48;;;;;;;14.05;3.70;;;8.10;99.90;;;;;;5082786;27;20048;-81
2023/12/20 08:11:14;;;;;;;27.98;5.45;;;8.10;99.90;;;;;;5080388;27;20043;-81
2023/12/20 08:13:39;;;;;;;23.27;4.57;;;8.10;99.90;;;;;;5081810;27;20146;-82
2023/12/20 08:16:05;;;;;;;20.67;5.03;;;8.10;99.90;;;;;;5082799;27;20035;-81
2023/12/20 08:18:31;;;;;;;19.98;3.80;;;8.10;99.90;;;;;;5084099;27;20357;-82
2023/12/20 08:20:57;;;;;;;17.50;3.40;;;8.10;99.90;;;;;;5098708;27;20108;-82
2023/12/20 08:23:23;;;;;;;17.90;4.47;;;8.30;99.90;;;;;;5076625;27;20039;-81
2023/12/20 08:25:49;;;;;;;16.25;3.75;;;8.20;99.90;;;;;;5100613;27;20046;-82
2023/12/20 08:28:15;;;;;;;22.95;4.50;;;8.20;99.90;;;;;;5082766;27;20034;-82
2023/12/20 08:30:41;;;;;;;17.88;3.83;;;8.30;99.90;;;;;;5082955;27;20043;-81
2023/12/20 08:33:12;;;;;;;14.57;4.40;;;8.20;99.90;;;;;;5082187;27;20027;-82
2023/12/20 08:35:39;;;;;;;24.17;4.30;;;8.10;99.90;;;;;;5081582;27;20314;-81
2023/12/20 08:38:05;;;;;;;15.25;3.38;;;8.10;99.90;;;;;;5084094;27;20128;-81
2023/12/20 08:40:31;;;;;;;21.02;3.85;;;8.10;99.90;;;;;;5085197;27;20039;-81
2023/12/20 08:42:57;;;;;;;14.43;3.47;;;8.10;99.90;;;;;;5097224;27;20378;-82
2023/12/20 08:45:22;;;;;;;11.85;2.65;;;8.10;99.90;;;;;;5080114;27;20176;-81
2023/12/20 08:47:48;;;;;;;10.10;2.33;;;8.00;99.90;;;;;;5101840;27;20070;-82
2023/12/20 08:50:15;;;;;;;9.25;2.30;;;8.00;99.90;;;;;;5097608;27;20477;-81
2023/12/20 08:52:41;;;;;;;10.98;2.83;;;8.00;99.90;;;;;;5081171;27;20300;-81
2023/12/20 08:55:07;;;;;;;10.05;2.85;;;8.00;99.90;;;;;;5082146;27;20038;-81
2023/12/20 08:57:33;;;;;;;10.15;2.60;;;8.00;99.90;;;;;;5094669;27;20142;-81
2023/12/20 08:59:59;;;;;;;20.63;2.83;;;8.10;99.90;;;;;;5077040;28;20549;-81
2023/12/20 09:02:25;;;;;;;15.27;3.13;;;8.10;99.90;;;;;;5080932;27;20039;-82
2023/12/20 09:04:50;;;;;;;14.00;3.92;;;8.00;99.90;;;;;;5079423;27;20122;-81
2023/12/20 09:07:27;;;;;;;16.77;3.67;;;8.20;99.90;;;;;;5098832;27;20068;-81
2023/12/20 09:09:53;;;;;;;14.65;4.13;;;8.20;99.90;;;;;;5084669;27;20320;-82
2023/12/20 09:12:19;;;;;;;10.25;2.35;;;8.40;99.90;;;;;;5077990;27;20054;-81
2023/12/20 09:14:50;;;;;;;9.32;2.08;;;7.60;99.90;;;;;;5079251;27;20124;-82
2023/12/20 09:17:17;;;;;;;12.02;2.40;;;9.00;99.90;;;;;;5083642;27;20114;-81
2023/12/20 09:19:46;;;;;;;11.77;1.95;;;9.60;99.90;;;;;;5098047;27;20035;-82
2023/12/20 09:22:12;;;;;;;8.13;1.77;;;10.40;99.90;;;;;;5082539;27;20535;-82
2023/12/20 09:24:38;;;;;;;8.60;1.63;;;10.70;99.90;;;;;;5081803;27;20188;-81
2023/12/20 09:27:05;;;;;;;5.05;1.60;;;11.10;99.90;;;;;;5081434;27;20564;-82
2023/12/20 09:29:31;;;;;;;7.43;1.58;;;11.10;99.90;;;;;;5095745;27;20078;-82
2023/12/20 09:31:57;;;;;;;7.25;1.30;;;11.00;99.90;;;;;;5082476;27;20043;-82
2023/12/20 09:34:24;;;;;;;5.88;1.40;;;10.80;99.90;;;;;;5080627;27;20095;-81
2023/12/20 09:36:49;;;;;;;5.70;1.30;;;10.70;99.90;;;;;;5084245;27;20094;-82
2023/12/20 09:39:23;;;;;;;8.13;2.05;;;10.50;99.90;;;;;;5082492;27;20040;-82
2023/12/20 09:41:55;;;;;;;7.65;1.88;;;10.50;99.90;;;;;;5081345;27;20047;-81
2023/12/20 09:44:21;;;;;;;6.80;1.10;;;10.40;99.90;;;;;;5075396;27;20543;-82
2023/12/20 09:46:50;;;;;;;5.53;1.30;;;10.50;99.90;;;;;;5097405;27;20500;-82
2023/12/20 09:49:18;;;;;;;4.38;1.23;;;10.50;99.90;;;;;;5081575;27;20035;-81
2023/12/20 09:51:46;;;;;;;6.35;1.70;;;10.60;99.90;;;;;;5073554;27;20037;-81
2023/12/20 09:54:20;;;;;;;3.67;1.52;;;10.60;99.90;;;;;;5079575;27;20111;-82
2023/12/20 09:56:46;;;;;;;9.27;1.45;;;10.50;99.90;;;;;;5097476;27;20074;-82
2023/12/20 09:59:12;;;;;;;7.47;1.90;;;10.60;99.90;;;;;;5083566;27;20319;-81
2023/12/20 10:01:40;;;;;;;10.57;2.58;;;10.60;99.90;;;;;;5082300;27;20031;-82
2023/12/20 10:04:08;;;;;;;8.75;1.88;;;10.60;99.90;;;;;;5098117;27;20078;-81
2023/12/20 10:06:38;;;;;;;5.45;2.10;;;10.70;99.90;;;;;;5080834;27;20254;-82
2023/12/20 10:09:05;;;;;;;8.18;1.80;;;10.80;99.90;;;;;;5079893;27;20317;-82
2023/12/20 10:11:31;;;;;;;9.88;1.92;;;10.80;99.90;;;;;;5094543;27;20146;-82
2023/12/20 10:14:01;;;;;;;10.15;1.70;;;10.80;99.90;;;;;;5076936;27;20049;-81
2023/12/20 10:16:27;;;;;;;9.68;2.05;;;10.70;99.90;;;;;;5073018;27;20537;-81
2023/12/20 10:18:54;;;;;;;9.63;1.90;;;10.60;99.90;;;;;;5082794;28;20184;-82
2023/12/20 10:21:20;;;;;;;4.50;1.73;;;10.50;99.90;;;;;;5096394;27;20031;-82
2023/12/20 10:23:46;;;;;;;11.20;2.35;;;10.50;99.90;;;;;;5092890;27;20042;-82
2023/12/20 10:26:21;;;;;;;9.77;1.88;;;10.40;99.90;;;;;;5096665;27;20093;-82
2023/12/20 10:28:49;;;;;;;11.02;2.65;;;10.10;99.90;;;;;;5082299;27;20536;-81
2023/12/20 10:31:34;;;;;;;7.65;2.00;;;10.10;99.90;;;;;;5078897;28;20401;-82
2023/12/20 10:34:03;;;;;;;12.23;2.13;;;10.00;99.90;;;;;;5093129;28;20035;-82
2023/12/20 10:36:32;;;;;;;11.82;2.35;;;9.80;99.90;;;;;;5077031;28;20104;-82
2023/12/20 10:38:58;;;;;;;10.68;2.10;;;9.70;99.90;;;;;;5079163;28;20035;-82
2023/12/20 10:41:29;;;;;;;12.32;2.00;;;9.60;99.90;;;;;;5080543;28;20320;-82
2023/12/20 10:44:02;;;;;;;8.90;1.85;;;9.40;99.90;;;;;;5077931;28;20417;-81
2023/12/20 10:46:29;;;;;;;13.57;2.20;;;9.40;99.90;;;;;;5080593;28;20304;-82
2023/12/20 10:48:56;;;;;;;12.07;1.90;;;9.30;99.90;;;;;;5077933;28;20028;-82
2023/12/20 10:51:23;;;;;;;9.52;2.25;;;9.10;99.90;;;;;;5077528;28;20035;-82
2023/12/20 10:53:50;;;;;;;10.05;2.30;;;9.00;99.90;;;;;;5081166;28;20092;-81
2023/12/20 10:56:18;;;;;;;9.63;2.53;;;8.90;99.90;;;;;;5084857;28;20023;-82
2023/12/20 10:58:45;;;;;;;11.60;2.38;;;8.60;99.90;;;;;;5073639;28;20108;-82
2023/12/20 11:01:16;;;;;;;12.13;2.20;;;8.60;99.90;;;;;;5096059;28;20035;-82
2023/12/20 11:03:52;;;;;;;10.65;2.33;;;8.40;99.90;;;;;;5078975;28;20031;-82
2023/12/20 11:06:30;;;;;;;9.43;2.38;;;8.30;99.90;;;;;;5082096;28;20360;-82
2023/12/20 11:09:24;;;;;;;10.73;2.20;;;8.20;99.90;;;;;;5098115;28;20046;-82
2023/12/20 11:12:32;;;;;;;11.63;2.20;;;8.10;99.90;;;;;;5079070;28;20291;-81
2023/12/20 11:15:04;;;;;;;9.48;2.03;;;7.90;99.90;;;;;;4996763;28;20481;-81
2023/12/20 11:17:31;;;;;;;9.68;2.17;;;7.90;99.90;;;;;;5062912;28;20091;-82
2023/12/20 11:19:56;;;;;;;12.55;2.55;;;7.80;99.90;;;;;;5080213;28;20046;-82
2023/12/20 11:22:26;;;;;;;15.63;3.05;;;7.70;99.90;;;;;;5078797;28;20406;-82
2023/12/20 11:24:52;;;;;;;16.13;2.72;;;7.50;99.90;;;;;;5084253;27;20038;-82
2023/12/20 11:27:22;;;;;;;9.77;2.17;;;7.50;99.90;;;;;;5085336;27;20042;-81
2023/12/20 11:29:58;;;;;;;11.27;2.15;;;7.40;99.90;;;;;;5093120;27;20051;-81
2023/12/20 11:32:30;;;;;;;14.13;2.22;;;7.50;99.90;;;;;;5080487;27;20261;-82
2023/12/20 11:34:56;;;;;;;10.45;2.75;;;7.40;99.90;;;;;;5106724;27;20303;-88
2023/12/20 11:37:35;;;;;;;13.02;2.30;;;7.40;99.90;;;;;;5085398;28;20058;-87
2023/12/20 11:40:11;;;;;;;14.18;2.40;;;7.40;99.90;;;;;;5104504;28;20110;-88
2023/12/20 11:42:44;;;;;;;12.38;1.92;;;7.40;99.90;;;;;;5107573;28;20039;-82
2023/12/20 11:45:30;;;;;;;10.35;2.55;;;7.40;99.90;;;;;;5084257;28;20799;-88
2023/12/20 11:47:57;;;;;;;7.95;2.58;;;7.40;99.90;;;;;;5088300;28;20028;-87
2023/12/20 11:50:43;;;;;;;13.30;2.95;;;7.60;99.90;;;;;;5083786;28;20035;-88
2023/12/20 11:55:49;;;;;;;10.15;2.47;;;7.80;99.90;;;;;;5078921;22;20049;-86
2023/12/20 11:58:16;;;;;;;8.77;1.95;;;7.80;99.90;;;;;;5022458;28;20079;-89
2023/12/20 12:00:45;;;;;;;12.80;2.65;;;7.70;99.90;;;;;;5019579;28;20048;-88
2023/12/20 12:03:15;;;;;;;10.25;2.20;;;7.60;99.90;;;;;;5021423;28;20041;-87
2023/12/20 12:05:41;;;;;;;10.10;2.05;;;7.60;99.90;;;;;;5044531;28;20078;-88
2023/12/20 12:08:07;;;;;;;12.48;2.70;;;7.60;99.90;;;;;;5047288;28;20067;-88
2023/12/20 12:10:33;;;;;;;10.95;2.83;;;7.70;99.90;;;;;;5034412;28;20047;-88
2023/12/20 12:13:00;;;;;;;8.02;2.15;;;7.70;99.90;;;;;;5032747;28;20040;-86
2023/12/20 12:15:26;;;;;;;12.48;1.88;;;7.70;99.90;;;;;;5025708;28;20212;-88
2023/12/20 12:17:56;;;;;;;11.07;2.10;;;7.70;99.90;;;;;;5031311;28;20036;-88
2023/12/20 12:20:23;;;;;;;8.85;2.10;;;7.60;99.90;;;;;;5030287;28;20036;-81
2023/12/20 12:23:03;;;;;;;12.27;2.42;;;7.60;99.90;;;;;;5049663;28;20223;-81
2023/12/20 12:25:30;;;;;;;13.23;2.45;;;7.60;99.90;;;;;;5028572;28;20051;-82
2023/12/20 12:27:58;;;;;;;14.30;3.13;;;7.60;99.90;;;;;;5038915;28;20121;-82
2023/12/20 12:30:24;;;;;;;13.52;2.83;;;7.60;99.90;;;;;;5026374;28;20044;-82
2023/12/20 12:32:51;;;;;;;13.07;2.45;;;7.60;99.90;;;;;;5026477;28;20071;-82
2023/12/20 12:35:18;;;;;;;9.98;2.50;;;7.60;99.90;;;;;;5019990;28;20057;-82
2023/12/20 12:37:44;;;;;;;9.80;2.30;;;7.50;99.90;;;;;;5030285;28;20043;-82
2023/12/20 12:40:11;;;;;;;11.52;2.70;;;7.60;99.90;;;;;;5025749;28;20495;-82
2023/12/20 12:42:42;;;;;;;8.25;2.10;;;7.50;99.90;;;;;;5042581;28;20555;-82
2023/12/20 12:45:08;;;;;;;14.18;2.45;;;7.50;99.90;;;;;;5021863;28;20039;-81
2023/12/20 12:47:35;;;;;;;10.23;2.28;;;7.40;99.90;;;;;;5027929;28;20525;-82
2023/12/20 12:50:01;;;;;;;12.77;2.45;;;7.40;99.90;;;;;;5046429;28;20044;-81